Magnus Heinason — OW2252 — position and weather

sailwx.info

Track history (hours):
 
Tides and Currents Weather Stations Pressure Air Temp Water Temp Dewpoint Dewpoint Depression Visibility Wind Speed Wind Dir Waves Ship Positions

Oceanographic research ship Magnus Heinason (Faroe Islands)

Detailed information on ship capabilities available from ARCUS's ALIAS (Arctic Logistics Information and Support) project.

Last reported at 2014-Sep-12 04:24 UTC. Time now 2014-Sep-16 19:33 UTC.
Position N 61°43' W 008°19'.

Length 44 m; draft 4 m.

Type: . MMSI: 231041000.

Date/timePositionNaut miles runAvg speedWind from/ knotsBaromVisibWave heightAir tempDewpointWater temp
2014-Sep-12 04:24N 61°43' W 008°19'2210.1
2014-Sep-12 02:16N 61°50' W 007°35'7 9.5
2014-Sep-12 01:33N 61°52' W 007°22'9 9.4
2014-Sep-12 00:33N 61°55' W 007°03'7 7.3
2014-Sep-11 23:33N 61°55' W 006°48'5 5.2
2014-Sep-11 22:33N 62°00' W 006°46'0 0.0
2014-Sep-11 21:33N 62°00' W 006°46'0 0.0
2014-Sep-11 20:33N 62°00' W 006°46'0 0.0
2014-Sep-11 19:33N 62°00' W 006°46'0 0.0
2014-Sep-11 18:33N 62°00' W 006°46'0 0.0
2014-Sep-11 17:33N 62°00' W 006°46'0 0.0
2014-Sep-11 16:33N 62°00' W 006°46'4 4.5
2014-Sep-11 15:33N 62°01' W 006°37'2 2.4
2014-Sep-11 14:33N 62°02' W 006°42'2 2.3
2014-Sep-11 13:33N 62°00' W 006°46'0 0.0
2014-Sep-11 12:33N 62°00' W 006°46'0 0.0
2014-Sep-11 11:33N 62°00' W 006°46'0 0.0
2014-Sep-11 10:33N 62°00' W 006°46'0 0.1
2014-Sep-11 09:33N 62°00' W 006°46'0 0.1
2014-Sep-11 08:33N 62°00' W 006°46'0 0.0
2014-Sep-11 07:33N 62°00' W 006°46'0 0.0
2014-Sep-11 06:33N 62°00' W 006°46'0 0.0
2014-Sep-11 05:33N 62°00' W 006°46'0 0.0
2014-Sep-11 04:33N 62°00' W 006°46'0 0.0
2014-Sep-11 03:33N 62°00' W 006°46'0 0.0
2014-Sep-11 02:33N 62°00' W 006°46'0 0.0
2014-Sep-11 01:33N 62°00' W 006°46'0 0.0
2014-Sep-11 00:33N 62°00' W 006°46'0 0.0
2014-Sep-10 23:33N 62°00' W 006°46'0 0.0
2014-Sep-10 22:33N 62°00' W 006°46'0 0.0
2014-Sep-10 21:33N 62°00' W 006°46'0 0.0
2014-Sep-10 20:33N 62°00' W 006°46'0 0.0
2014-Sep-10 19:33N 62°00' W 006°46'0 0.0
2014-Sep-10 18:33N 62°00' W 006°46'0 0.0
2014-Sep-10 17:33N 62°00' W 006°46'0 0.0
2014-Sep-10 16:33N 62°00' W 006°46'0 0.0
2014-Sep-10 15:33N 62°00' W 006°46'0 0.0
2014-Sep-10 14:33N 62°00' W 006°46'0 0.0
2014-Sep-10 13:32N 62°00' W 006°46'0 0.0
2014-Sep-10 12:33N 62°00' W 006°46'0 0.0
2014-Sep-10 11:33N 62°00' W 006°46'0 0.0
2014-Sep-10 10:33N 62°00' W 006°46'0 0.0
2014-Sep-10 09:33N 62°00' W 006°46'0 0.0
2014-Sep-10 08:08N 62°00' W 006°46'0 0.0
2014-Sep-10 07:33N 62°00' W 006°46'0 0.0
2014-Sep-10 06:33N 62°00' W 006°46'0 0.0
2014-Sep-10 05:33N 62°00' W 006°46'0 0.0
2014-Sep-10 04:33N 62°00' W 006°46'0 0.0
2014-Sep-10 03:33N 62°00' W 006°46'0 0.0
2014-Sep-10 02:33N 62°00' W 006°46'0 0.0
2014-Sep-10 01:33N 62°00' W 006°46'0 0.0
2014-Sep-10 00:33N 62°00' W 006°46'0 0.0
2014-Sep-09 23:32N 62°00' W 006°46'0 0.0
2014-Sep-09 22:33N 62°00' W 006°46'0 0.0
2014-Sep-09 21:33N 62°00' W 006°46'0 0.0
2014-Sep-09 20:33N 62°00' W 006°46'0 0.0
2014-Sep-09 19:33N 62°00' W 006°46'0 0.0
2014-Sep-09 18:33N 62°00' W 006°46'0 0.0
2014-Sep-09 17:33N 62°00' W 006°46'0 0.0
2014-Sep-09 16:33N 62°00' W 006°46'0 0.0
2014-Sep-09 15:33N 62°00' W 006°46'0 0.0
2014-Sep-09 14:33N 62°00' W 006°46'0 0.0
2014-Sep-09 13:33N 62°00' W 006°46'0 0.0
2014-Sep-09 12:33N 62°00' W 006°46'0 0.0
2014-Sep-09 11:33N 62°00' W 006°46'0 0.0
2014-Sep-09 10:33N 62°00' W 006°46'0 0.0
2014-Sep-09 09:33N 62°00' W 006°46'0 0.0
2014-Sep-09 08:33N 62°00' W 006°46'0 0.1
2014-Sep-09 07:33N 62°00' W 006°46'0 0.0
2014-Sep-09 06:33N 62°00' W 006°46'0 0.0
2014-Sep-09 05:33N 62°00' W 006°46'0 0.0
2014-Sep-09 04:32N 62°00' W 006°46'0 0.0
2014-Sep-09 03:33N 62°00' W 006°46'0 0.0
2014-Sep-09 02:33N 62°00' W 006°46'0 0.0
2014-Sep-09 01:33N 62°00' W 006°46'0 0.0
2014-Sep-09 00:33N 62°00' W 006°46'0 0.0
2014-Sep-08 23:33N 62°00' W 006°46'0 0.0
2014-Sep-08 22:33N 62°00' W 006°46'0 0.0
2014-Sep-08 21:33N 62°00' W 006°46'0 0.0
2014-Sep-08 20:33N 62°00' W 006°46'0 0.0
2014-Sep-08 19:33N 62°00' W 006°46'0 0.0
2014-Sep-08 18:33N 62°00' W 006°46'0 0.0
2014-Sep-08 17:33N 62°00' W 006°46'0 0.0
2014-Sep-08 16:33N 62°00' W 006°46'5 4.7
2014-Sep-08 15:33N 61°56' W 006°46'8 8.1
2014-Sep-08 14:33N 61°52' W 007°02'  
2014-Sep-03 23:34N 61°39' W 008°04'11 8.7
2014-Sep-03 22:21N 61°44' W 007°44'7 8.5
2014-Sep-03 21:33N 61°47' W 007°31'8 8.1
2014-Sep-03 20:34N 61°50' W 007°16'7 7.3
2014-Sep-03 19:34N 61°54' W 007°02'7 7.1
2014-Sep-03 18:34N 61°55' W 006°48'5 5.2
2014-Sep-03 17:33N 62°00' W 006°46'0 0.0
2014-Sep-03 16:34N 62°00' W 006°46'0 0.0
2014-Sep-03 15:34N 62°00' W 006°46'0 0.0
2014-Sep-03 14:34N 62°00' W 006°46'0 0.0
2014-Sep-03 13:33N 62°00' W 006°46'0 0.0
2014-Sep-03 12:33N 62°00' W 006°46'0 0.0
2014-Sep-03 11:34N 62°00' W 006°46'0 0.0
2014-Sep-03 10:34N 62°00' W 006°46'0 0.0
2014-Sep-03 09:33N 62°00' W 006°46'0 0.0
2014-Sep-03 08:34N 62°00' W 006°46'0 0.0
2014-Sep-03 07:33N 62°00' W 006°46'0 0.0
2014-Sep-03 06:34N 62°00' W 006°46'0 0.0
2014-Sep-03 05:34N 62°00' W 006°46'0 0.0
2014-Sep-03 04:34N 62°00' W 006°46'0 0.0
2014-Sep-03 03:34N 62°00' W 006°46'0 0.0
2014-Sep-03 02:34N 62°00' W 006°46'0 0.0
2014-Sep-03 01:34N 62°00' W 006°46'0 0.0
2014-Sep-03 00:34N 62°00' W 006°46'0 0.0
2014-Sep-02 23:34N 62°00' W 006°46'0 0.0
2014-Sep-02 22:33N 62°00' W 006°46'0 0.0
2014-Sep-02 21:33N 62°00' W 006°46'0 0.0
2014-Sep-02 20:33N 62°00' W 006°46'0 0.0
2014-Sep-02 19:34N 62°00' W 006°46'0 0.0
2014-Sep-02 18:33N 62°00' W 006°46'0 0.0
2014-Sep-02 17:33N 62°00' W 006°46'0 0.0
2014-Sep-02 16:33N 62°00' W 006°46'0 0.0
2014-Sep-02 15:33N 62°00' W 006°46'0 0.0
2014-Sep-02 14:33N 62°00' W 006°46'0 0.0
2014-Sep-02 13:34N 62°00' W 006°46'0 0.0
2014-Sep-02 12:34N 62°00' W 006°46'0 0.0
2014-Sep-02 11:33N 62°00' W 006°46'0 0.0
2014-Sep-02 10:34N 62°00' W 006°46'0 0.0
2014-Sep-02 09:34N 62°00' W 006°46'0 0.0
2014-Sep-02 08:33N 62°00' W 006°46'0 0.0
2014-Sep-02 07:34N 62°00' W 006°46'0 0.0
2014-Sep-02 06:33N 62°00' W 006°46'0 0.0
2014-Sep-02 05:33N 62°00' W 006°46'0 0.0
2014-Sep-02 04:33N 62°00' W 006°46'  
Track history (hours):
 
Tides and Currents Weather Stations Pressure Air Temp Water Temp Dewpoint Dewpoint Depression Visibility Wind Speed Wind Dir Waves Ship Positions

Oceanographic research ship Magnus Heinason (Faroe Islands)

Detailed information on ship capabilities available from ARCUS's ALIAS (Arctic Logistics Information and Support) project.

Last reported at 2014-Sep-12 04:24 UTC. Time now 2014-Sep-16 19:33 UTC.
Position N 61°43' W 008°19'.

Length 44 m; draft 4 m.

Type: . MMSI: 231041000.

Date/timePositionNaut miles runAvg speedWind from/ knotsBaromVisibWave heightAir tempDewpointWater temp
2014-Sep-12 04:24N 61°43' W 008°19'2210.1
2014-Sep-12 02:16N 61°50' W 007°35'7 9.5
2014-Sep-12 01:33N 61°52' W 007°22'9 9.4
2014-Sep-12 00:33N 61°55' W 007°03'7 7.3
2014-Sep-11 23:33N 61°55' W 006°48'5 5.2
2014-Sep-11 22:33N 62°00' W 006°46'0 0.0
2014-Sep-11 21:33N 62°00' W 006°46'0 0.0
2014-Sep-11 20:33N 62°00' W 006°46'0 0.0
2014-Sep-11 19:33N 62°00' W 006°46'0 0.0
2014-Sep-11 18:33N 62°00' W 006°46'0 0.0
2014-Sep-11 17:33N 62°00' W 006°46'0 0.0
2014-Sep-11 16:33N 62°00' W 006°46'4 4.5
2014-Sep-11 15:33N 62°01' W 006°37'2 2.4
2014-Sep-11 14:33N 62°02' W 006°42'2 2.3
2014-Sep-11 13:33N 62°00' W 006°46'0 0.0
2014-Sep-11 12:33N 62°00' W 006°46'0 0.0
2014-Sep-11 11:33N 62°00' W 006°46'0 0.0
2014-Sep-11 10:33N 62°00' W 006°46'0 0.1
2014-Sep-11 09:33N 62°00' W 006°46'0 0.1
2014-Sep-11 08:33N 62°00' W 006°46'0 0.0
2014-Sep-11 07:33N 62°00' W 006°46'0 0.0
2014-Sep-11 06:33N 62°00' W 006°46'0 0.0
2014-Sep-11 05:33N 62°00' W 006°46'0 0.0
2014-Sep-11 04:33N 62°00' W 006°46'0 0.0
2014-Sep-11 03:33N 62°00' W 006°46'0 0.0
2014-Sep-11 02:33N 62°00' W 006°46'0 0.0
2014-Sep-11 01:33N 62°00' W 006°46'0 0.0
2014-Sep-11 00:33N 62°00' W 006°46'0 0.0
2014-Sep-10 23:33N 62°00' W 006°46'0 0.0
2014-Sep-10 22:33N 62°00' W 006°46'0 0.0
2014-Sep-10 21:33N 62°00' W 006°46'0 0.0
2014-Sep-10 20:33N 62°00' W 006°46'0 0.0
2014-Sep-10 19:33N 62°00' W 006°46'0 0.0
2014-Sep-10 18:33N 62°00' W 006°46'0 0.0
2014-Sep-10 17:33N 62°00' W 006°46'0 0.0
2014-Sep-10 16:33N 62°00' W 006°46'0 0.0
2014-Sep-10 15:33N 62°00' W 006°46'0 0.0
2014-Sep-10 14:33N 62°00' W 006°46'0 0.0
2014-Sep-10 13:32N 62°00' W 006°46'0 0.0
2014-Sep-10 12:33N 62°00' W 006°46'0 0.0
2014-Sep-10 11:33N 62°00' W 006°46'0 0.0
2014-Sep-10 10:33N 62°00' W 006°46'0 0.0
2014-Sep-10 09:33N 62°00' W 006°46'0 0.0
2014-Sep-10 08:08N 62°00' W 006°46'0 0.0
2014-Sep-10 07:33N 62°00' W 006°46'0 0.0
2014-Sep-10 06:33N 62°00' W 006°46'0 0.0
2014-Sep-10 05:33N 62°00' W 006°46'0 0.0
2014-Sep-10 04:33N 62°00' W 006°46'0 0.0
2014-Sep-10 03:33N 62°00' W 006°46'0 0.0
2014-Sep-10 02:33N 62°00' W 006°46'0 0.0
2014-Sep-10 01:33N 62°00' W 006°46'0 0.0
2014-Sep-10 00:33N 62°00' W 006°46'0 0.0
2014-Sep-09 23:32N 62°00' W 006°46'0 0.0
2014-Sep-09 22:33N 62°00' W 006°46'0 0.0
2014-Sep-09 21:33N 62°00' W 006°46'0 0.0
2014-Sep-09 20:33N 62°00' W 006°46'0 0.0
2014-Sep-09 19:33N 62°00' W 006°46'0 0.0
2014-Sep-09 18:33N 62°00' W 006°46'0 0.0
2014-Sep-09 17:33N 62°00' W 006°46'0 0.0
2014-Sep-09 16:33N 62°00' W 006°46'0 0.0
2014-Sep-09 15:33N 62°00' W 006°46'0 0.0
2014-Sep-09 14:33N 62°00' W 006°46'0 0.0
2014-Sep-09 13:33N 62°00' W 006°46'0 0.0
2014-Sep-09 12:33N 62°00' W 006°46'0 0.0
2014-Sep-09 11:33N 62°00' W 006°46'0 0.0
2014-Sep-09 10:33N 62°00' W 006°46'0 0.0
2014-Sep-09 09:33N 62°00' W 006°46'0 0.0
2014-Sep-09 08:33N 62°00' W 006°46'0 0.1
2014-Sep-09 07:33N 62°00' W 006°46'0 0.0
2014-Sep-09 06:33N 62°00' W 006°46'0 0.0
2014-Sep-09 05:33N 62°00' W 006°46'0 0.0
2014-Sep-09 04:32N 62°00' W 006°46'0 0.0
2014-Sep-09 03:33N 62°00' W 006°46'0 0.0
2014-Sep-09 02:33N 62°00' W 006°46'0 0.0
2014-Sep-09 01:33N 62°00' W 006°46'0 0.0
2014-Sep-09 00:33N 62°00' W 006°46'0 0.0
2014-Sep-08 23:33N 62°00' W 006°46'0 0.0
2014-Sep-08 22:33N 62°00' W 006°46'0 0.0
2014-Sep-08 21:33N 62°00' W 006°46'0 0.0
2014-Sep-08 20:33N 62°00' W 006°46'0 0.0
2014-Sep-08 19:33N 62°00' W 006°46'0 0.0
2014-Sep-08 18:33N 62°00' W 006°46'0 0.0
2014-Sep-08 17:33N 62°00' W 006°46'0 0.0
2014-Sep-08 16:33N 62°00' W 006°46'5 4.7
2014-Sep-08 15:33N 61°56' W 006°46'8 8.1
2014-Sep-08 14:33N 61°52' W 007°02'  
2014-Sep-03 23:34N 61°39' W 008°04'11 8.7
2014-Sep-03 22:21N 61°44' W 007°44'7 8.5
2014-Sep-03 21:33N 61°47' W 007°31'8 8.1
2014-Sep-03 20:34N 61°50' W 007°16'7 7.3
2014-Sep-03 19:34N 61°54' W 007°02'7 7.1
2014-Sep-03 18:34N 61°55' W 006°48'5 5.2
2014-Sep-03 17:33N 62°00' W 006°46'0 0.0
2014-Sep-03 16:34N 62°00' W 006°46'0 0.0
2014-Sep-03 15:34N 62°00' W 006°46'0 0.0
2014-Sep-03 14:34N 62°00' W 006°46'0 0.0
2014-Sep-03 13:33N 62°00' W 006°46'0 0.0
2014-Sep-03 12:33N 62°00' W 006°46'0 0.0
2014-Sep-03 11:34N 62°00' W 006°46'0 0.0
2014-Sep-03 10:34N 62°00' W 006°46'0 0.0
2014-Sep-03 09:33N 62°00' W 006°46'0 0.0
2014-Sep-03 08:34N 62°00' W 006°46'0 0.0
2014-Sep-03 07:33N 62°00' W 006°46'0 0.0
2014-Sep-03 06:34N 62°00' W 006°46'0 0.0
2014-Sep-03 05:34N 62°00' W 006°46'0 0.0
2014-Sep-03 04:34N 62°00' W 006°46'0 0.0
2014-Sep-03 03:34N 62°00' W 006°46'0 0.0
2014-Sep-03 02:34N 62°00' W 006°46'0 0.0
2014-Sep-03 01:34N 62°00' W 006°46'0 0.0
2014-Sep-03 00:34N 62°00' W 006°46'0 0.0
2014-Sep-02 23:34N 62°00' W 006°46'0 0.0
2014-Sep-02 22:33N 62°00' W 006°46'0 0.0
2014-Sep-02 21:33N 62°00' W 006°46'0 0.0
2014-Sep-02 20:33N 62°00' W 006°46'0 0.0
2014-Sep-02 19:34N 62°00' W 006°46'0 0.0
2014-Sep-02 18:33N 62°00' W 006°46'0 0.0
2014-Sep-02 17:33N 62°00' W 006°46'0 0.0
2014-Sep-02 16:33N 62°00' W 006°46'0 0.0
2014-Sep-02 15:33N 62°00' W 006°46'0 0.0
2014-Sep-02 14:33N 62°00' W 006°46'0 0.0
2014-Sep-02 13:34N 62°00' W 006°46'0 0.0
2014-Sep-02 12:34N 62°00' W 006°46'0 0.0
2014-Sep-02 11:33N 62°00' W 006°46'0 0.0
2014-Sep-02 10:34N 62°00' W 006°46'0 0.0
2014-Sep-02 09:34N 62°00' W 006°46'0 0.0
2014-Sep-02 08:33N 62°00' W 006°46'0 0.0
2014-Sep-02 07:34N 62°00' W 006°46'0 0.0
2014-Sep-02 06:33N 62°00' W 006°46'0 0.0
2014-Sep-02 05:33N 62°00' W 006°46'0 0.0
2014-Sep-02 04:33N 62°00' W 006°46'  

Dump ship's entire track history